Time,TemperatureF,DewpointF,PressureIn,WindDirection,WindDirectionDegrees,WindSpeedMPH,WindSpeedGustMPH,Humidity,HourlyPrecipIn,Conditions,Clouds,dailyrainin,SoftwareType,DateUTC
2013-04-09 00:02:00,41.0,38.0,-100.00,North,-999,0.0,0.0,88,-99.99,,,-99.99,,2013-04-09 07:02:00,
2013-04-09 01:02:00,40.0,38.0,-100.00,SSW,200,5.0,6.0,92,-99.99,,,-99.99,,2013-04-09 08:02:00,
2013-04-09 01:12:00,40.0,38.0,-100.00,SSW,200,5.0,6.0,92,-99.99,,,-99.99,,2013-04-09 08:12:00,
2013-04-09 02:02:00,39.0,35.0,-100.00,SSW,200,5.0,6.0,85,-99.99,,,-99.99,,2013-04-09 09:02:00,
2013-04-09 02:10:00,37.0,33.0,-100.00,North,-999,0.0,0.0,85,-99.99,,,-99.99,,2013-04-09 09:10:00,
2013-04-09 03:03:00,37.0,33.0,-100.00,North,-999,0.0,0.0,85,-99.99,,,-99.99,,2013-04-09 10:03:00,
2013-04-09 04:02:00,38.0,31.0,-100.00,South,175,5.0,6.0,75,-99.99,,,-99.99,,2013-04-09 11:02:00,
2013-04-09 04:12:00,38.0,31.0,-100.00,South,175,5.0,6.0,75,-99.99,,,-99.99,,2013-04-09 11:12:00,
2013-04-09 05:10:00,37.0,30.0,-100.00,SSE,160,5.0,6.0,75,-99.99,,,-99.99,,2013-04-09 12:10:00,
2013-04-09 06:02:00,37.0,30.0,-100.00,SSE,160,5.0,6.0,75,-99.99,,,-99.99,,2013-04-09 13:02:00,
2013-04-09 07:03:00,34.0,30.0,-100.00,SSE,165,7.0,7.0,85,-99.99,,,-99.99,,2013-04-09 14:03:00,
2013-04-09 07:12:00,34.0,30.0,-100.00,SSE,165,7.0,7.0,85,-99.99,,,-99.99,,2013-04-09 14:12:00,
2013-04-09 10:10:00,44.0,32.0,-100.00,WSW,240,5.0,9.0,62,-99.99,,,-99.99,,2013-04-09 17:10:00,
2013-04-09 11:02:00,44.0,32.0,-100.00,WSW,240,5.0,9.0,62,-99.99,,,-99.99,,2013-04-09 18:02:00,
2013-04-09 12:10:00,48.0,34.0,-100.00,West,265,6.0,14.0,58,-99.99,,,-99.99,,2013-04-09 19:10:00,
2013-04-09 13:02:00,48.0,34.0,-100.00,West,265,6.0,14.0,58,-99.99,,,-99.99,,2013-04-09 20:02:00,
2013-04-09 14:02:00,51.0,36.0,-100.00,SW,225,10.0,15.0,56,-99.99,,,-99.99,,2013-04-09 21:02:00,
2013-04-09 14:13:00,51.0,36.0,-100.00,SW,225,10.0,15.0,56,-99.99,,,-99.99,,2013-04-09 21:13:00,
2013-04-09 15:10:00,52.0,37.0,-100.00,WSW,245,6.0,13.0,56,-99.99,,,-99.99,,2013-04-09 22:10:00,
2013-04-09 16:02:00,52.0,37.0,-100.00,WSW,245,6.0,13.0,56,-99.99,,,-99.99,,2013-04-09 23:02:00,
2013-04-09 18:02:00,52.0,35.0,-100.00,WSW,255,9.0,13.0,52,-99.99,,,-99.99,,2013-04-10 01:02:00,
2013-04-09 18:10:00,51.0,36.0,-100.00,WSW,240,9.0,13.0,56,-99.99,,,-99.99,,2013-04-10 01:10:00,
2013-04-09 19:02:00,51.0,36.0,-100.00,WSW,240,9.0,13.0,56,-99.99,,,-99.99,,2013-04-10 02:02:00,
2013-04-09 20:02:00,49.0,35.0,-100.00,WNW,300,6.0,8.0,58,-99.99,,,-99.99,,2013-04-10 03:02:00,
2013-04-09 20:10:00,49.0,37.0,-100.00,WNW,290,7.0,12.0,63,-99.99,,,-99.99,,2013-04-10 03:10:00,
2013-04-09 20:12:00,49.0,35.0,-100.00,WNW,300,6.0,8.0,58,-99.99,,,-99.99,,2013-04-10 03:12:00,
2013-04-09 21:03:00,49.0,37.0,-100.00,WNW,290,7.0,12.0,63,-99.99,,,-99.99,,2013-04-10 04:03:00,
2013-04-09 22:02:00,48.0,36.0,-100.00,West,270,6.0,10.0,62,-99.99,,,-99.99,,2013-04-10 05:02:00,
2013-04-09 22:13:00,48.0,36.0,-100.00,West,270,6.0,10.0,62,-99.99,,,-99.99,,2013-04-10 05:13:00,
2013-04-09 23:03:00,47.0,37.0,-100.00,West,275,6.0,10.0,68,-99.99,,,-99.99,,2013-04-10 06:03:00,
2013-04-09 23:10:00,46.0,37.0,-100.00,West,270,7.0,13.0,70,-99.99,,,-99.99,,2013-04-10 06:10:00,